sensor_id;sensor_type;location;lat;lon;timestamp;pressure;altitude;pressure_sealevel;temperature;humidity
60041;BME280;60036;53.468;-2.266;2022-10-30T00:02:14;100732.59;;;17.83;32.60
60041;BME280;60036;53.468;-2.266;2022-10-30T00:04:39;100734.16;;;17.59;32.69
60041;BME280;60036;53.468;-2.266;2022-10-30T00:07:04;100737.07;;;17.55;32.65
60041;BME280;60036;53.468;-2.266;2022-10-30T00:09:30;100736.61;;;17.62;32.67
60041;BME280;60036;53.468;-2.266;2022-10-30T00:11:55;100740.44;;;17.45;32.70
60041;BME280;60036;53.468;-2.266;2022-10-30T00:14:20;100740.86;;;17.57;32.74
60041;BME280;60036;53.468;-2.266;2022-10-30T00:16:45;100737.16;;;17.66;32.65
60041;BME280;60036;53.468;-2.266;2022-10-30T00:19:10;100736.81;;;17.61;32.67
60041;BME280;60036;53.468;-2.266;2022-10-30T00:21:36;100737.14;;;17.62;32.50
60041;BME280;60036;53.468;-2.266;2022-10-30T00:24:01;100733.79;;;17.87;32.59
60041;BME280;60036;53.468;-2.266;2022-10-30T00:26:27;100734.66;;;17.68;32.36
60041;BME280;60036;53.468;-2.266;2022-10-30T00:28:53;100733.31;;;17.74;32.46
60041;BME280;60036;53.468;-2.266;2022-10-30T00:31:17;100733.58;;;17.89;32.35
60041;BME280;60036;53.468;-2.266;2022-10-30T00:33:42;100729.37;;;17.67;32.52
60041;BME280;60036;53.468;-2.266;2022-10-30T00:36:07;100727.03;;;17.91;32.65
60041;BME280;60036;53.468;-2.266;2022-10-30T00:38:32;100718.01;;;17.11;32.60
60041;BME280;60036;53.468;-2.266;2022-10-30T00:40:58;100714.51;;;17.98;32.48
60041;BME280;60036;53.468;-2.266;2022-10-30T00:43:27;100714.63;;;17.76;32.43
60041;BME280;60036;53.468;-2.266;2022-10-30T00:45:48;100714.16;;;17.54;32.47
60041;BME280;60036;53.468;-2.266;2022-10-30T00:48:13;100713.08;;;17.62;32.52
60041;BME280;60036;53.468;-2.266;2022-10-30T00:50:39;100711.76;;;17.67;32.58
60041;BME280;60036;53.468;-2.266;2022-10-30T00:53:06;100713.12;;;17.84;32.59
60041;BME280;60036;53.468;-2.266;2022-10-30T00:55:31;100714.36;;;17.15;32.61
60041;BME280;60036;53.468;-2.266;2022-10-30T00:57:55;100714.95;;;17.60;32.51
60041;BME280;60036;53.468;-2.266;2022-10-30T01:00:21;100717.76;;;17.18;32.54
60041;BME280;60036;53.468;-2.266;2022-10-30T01:02:45;100714.58;;;17.42;32.56
60041;BME280;60036;53.468;-2.266;2022-10-30T01:05:11;100717.42;;;17.72;32.65
60041;BME280;60036;53.468;-2.266;2022-10-30T01:07:35;100714.18;;;17.67;32.56
60041;BME280;60036;53.468;-2.266;2022-10-30T01:10:00;100707.59;;;17.45;32.62
60041;BME280;60036;53.468;-2.266;2022-10-30T01:12:25;100708.21;;;17.37;32.56
60041;BME280;60036;53.468;-2.266;2022-10-30T01:14:54;100709.30;;;17.82;32.55
60041;BME280;60036;53.468;-2.266;2022-10-30T01:17:29;100708.05;;;17.25;32.58
60041;BME280;60036;53.468;-2.266;2022-10-30T01:19:45;100710.55;;;17.49;32.54
60041;BME280;60036;53.468;-2.266;2022-10-30T01:22:18;100706.86;;;17.51;32.51
60041;BME280;60036;53.468;-2.266;2022-10-30T01:24:40;100706.38;;;17.55;32.56
60041;BME280;60036;53.468;-2.266;2022-10-30T01:27:06;100703.21;;;17.49;32.45
60041;BME280;60036;53.468;-2.266;2022-10-30T01:29:32;100705.85;;;17.51;32.55
60041;BME280;60036;53.468;-2.266;2022-10-30T01:31:56;100703.99;;;17.77;32.50
60041;BME280;60036;53.468;-2.266;2022-10-30T01:34:20;100706.30;;;17.67;32.54
60041;BME280;60036;53.468;-2.266;2022-10-30T01:36:41;100704.14;;;17.34;32.54
60041;BME280;60036;53.468;-2.266;2022-10-30T01:39:06;100706.77;;;17.40;32.58
60041;BME280;60036;53.468;-2.266;2022-10-30T01:41:28;100709.02;;;17.33;32.49
60041;BME280;60036;53.468;-2.266;2022-10-30T01:43:56;100709.96;;;17.54;32.54
60041;BME280;60036;53.468;-2.266;2022-10-30T01:46:32;100709.04;;;17.58;32.54
60041;BME280;60036;53.468;-2.266;2022-10-30T01:48:54;100703.50;;;17.11;32.54
60041;BME280;60036;53.468;-2.266;2022-10-30T01:51:12;100699.38;;;17.55;32.51
60041;BME280;60036;53.468;-2.266;2022-10-30T01:53:43;100699.71;;;17.15;32.52
60041;BME280;60036;53.468;-2.266;2022-10-30T01:56:08;100703.39;;;17.52;32.50
60041;BME280;60036;53.468;-2.266;2022-10-30T01:58:29;100706.75;;;17.16;32.39
60041;BME280;60036;53.468;-2.266;2022-10-30T02:00:52;100701.23;;;17.77;32.41
60041;BME280;60036;53.468;-2.266;2022-10-30T02:03:15;100698.21;;;17.42;32.46
60041;BME280;60036;53.468;-2.266;2022-10-30T02:05:42;100695.43;;;17.79;32.40
60041;BME280;60036;53.468;-2.266;2022-10-30T02:08:05;100689.64;;;17.65;32.40
60041;BME280;60036;53.468;-2.266;2022-10-30T02:10:33;100692.70;;;17.45;32.48
60041;BME280;60036;53.468;-2.266;2022-10-30T02:12:55;100695.50;;;17.32;32.42
60041;BME280;60036;53.468;-2.266;2022-10-30T02:15:20;100695.61;;;17.37;32.34
60041;BME280;60036;53.468;-2.266;2022-10-30T02:17:45;100690.13;;;17.09;32.50
60041;BME280;60036;53.468;-2.266;2022-10-30T02:20:14;100682.61;;;17.56;32.44
60041;BME280;60036;53.468;-2.266;2022-10-30T02:22:36;100676.62;;;17.45;32.47
60041;BME280;60036;53.468;-2.266;2022-10-30T02:25:01;100679.00;;;17.67;32.34
60041;BME280;60036;53.468;-2.266;2022-10-30T02:27:26;100676.23;;;17.54;32.41
60041;BME280;60036;53.468;-2.266;2022-10-30T02:29:51;100675.44;;;17.23;32.39
60041;BME280;60036;53.468;-2.266;2022-10-30T02:32:17;100670.94;;;17.39;32.42
60041;BME280;60036;53.468;-2.266;2022-10-30T02:34:42;100668.47;;;17.61;32.41
60041;BME280;60036;53.468;-2.266;2022-10-30T02:37:07;100665.74;;;17.44;32.41
60041;BME280;60036;53.468;-2.266;2022-10-30T02:39:32;100668.37;;;17.38;32.46
60041;BME280;60036;53.468;-2.266;2022-10-30T02:41:57;100673.91;;;17.29;32.35
60041;BME280;60036;53.468;-2.266;2022-10-30T02:44:22;100671.92;;;17.90;32.36
60041;BME280;60036;53.468;-2.266;2022-10-30T02:46:47;100674.91;;;17.64;32.39
60041;BME280;60036;53.468;-2.266;2022-10-30T02:49:12;100675.36;;;17.19;32.45
60041;BME280;60036;53.468;-2.266;2022-10-30T02:51:38;100673.82;;;17.27;32.34
60041;BME280;60036;53.468;-2.266;2022-10-30T02:54:03;100672.45;;;17.33;32.33
60041;BME280;60036;53.468;-2.266;2022-10-30T02:56:28;100664.30;;;17.48;32.36
60041;BME280;60036;53.468;-2.266;2022-10-30T02:58:53;100666.28;;;17.42;32.31
60041;BME280;60036;53.468;-2.266;2022-10-30T03:01:19;100657.68;;;17.31;32.31
60041;BME280;60036;53.468;-2.266;2022-10-30T03:03:44;100666.59;;;17.96;32.35
60041;BME280;60036;53.468;-2.266;2022-10-30T03:06:10;100668.25;;;17.66;32.35
60041;BME280;60036;53.468;-2.266;2022-10-30T03:08:34;100666.36;;;17.52;32.26
60041;BME280;60036;53.468;-2.266;2022-10-30T03:11:00;100660.81;;;17.52;32.35
60041;BME280;60036;53.468;-2.266;2022-10-30T03:13:24;100666.87;;;17.93;32.32
60041;BME280;60036;53.468;-2.266;2022-10-30T03:15:49;100665.34;;;17.37;32.36
60041;BME280;60036;53.468;-2.266;2022-10-30T03:18:14;100665.60;;;17.35;32.32
60041;BME280;60036;53.468;-2.266;2022-10-30T03:20:39;100660.61;;;17.57;32.24
60041;BME280;60036;53.468;-2.266;2022-10-30T03:23:04;100662.80;;;17.57;32.24
60041;BME280;60036;53.468;-2.266;2022-10-30T03:25:29;100654.07;;;17.50;32.27
60041;BME280;60036;53.468;-2.266;2022-10-30T03:27:54;100658.95;;;17.33;32.14
60041;BME280;60036;53.468;-2.266;2022-10-30T03:30:19;100662.53;;;17.76;32.11
60041;BME280;60036;53.468;-2.266;2022-10-30T03:32:45;100655.72;;;17.74;32.14
60041;BME280;60036;53.468;-2.266;2022-10-30T03:35:10;100657.23;;;17.30;32.15
60041;BME280;60036;53.468;-2.266;2022-10-30T03:37:35;100652.34;;;17.66;32.11
60041;BME280;60036;53.468;-2.266;2022-10-30T03:40:00;100643.93;;;17.64;32.08
60041;BME280;60036;53.468;-2.266;2022-10-30T03:42:25;100639.04;;;17.46;32.18
60041;BME280;60036;53.468;-2.266;2022-10-30T03:44:50;100632.59;;;17.52;32.18
60041;BME280;60036;53.468;-2.266;2022-10-30T03:47:16;100628.29;;;17.47;32.20
60041;BME280;60036;53.468;-2.266;2022-10-30T03:49:40;100624.54;;;17.70;32.18
60041;BME280;60036;53.468;-2.266;2022-10-30T03:52:05;100621.80;;;17.27;32.02
60041;BME280;60036;53.468;-2.266;2022-10-30T03:54:31;100622.58;;;17.48;32.14
60041;BME280;60036;53.468;-2.266;2022-10-30T03:56:56;100618.26;;;17.25;32.15
60041;BME280;60036;53.468;-2.266;2022-10-30T03:59:21;100617.26;;;17.46;32.16
60041;BME280;60036;53.468;-2.266;2022-10-30T04:01:46;100611.12;;;17.53;32.20
60041;BME280;60036;53.468;-2.266;2022-10-30T04:04:11;100609.93;;;17.84;32.19
60041;BME280;60036;53.468;-2.266;2022-10-30T04:06:36;100615.10;;;17.69;32.16
60041;BME280;60036;53.468;-2.266;2022-10-30T04:09:01;100612.76;;;17.60;32.19
60041;BME280;60036;53.468;-2.266;2022-10-30T04:11:26;100616.94;;;17.52;32.12
60041;BME280;60036;53.468;-2.266;2022-10-30T04:13:52;100610.24;;;17.54;32.07
60041;BME280;60036;53.468;-2.266;2022-10-30T04:16:17;100607.74;;;17.11;32.02
60041;BME280;60036;53.468;-2.266;2022-10-30T04:18:42;100603.17;;;17.27;32.05
60041;BME280;60036;53.468;-2.266;2022-10-30T04:21:07;100594.70;;;17.53;31.96
60041;BME280;60036;53.468;-2.266;2022-10-30T04:23:33;100603.58;;;17.53;32.08
60041;BME280;60036;53.468;-2.266;2022-10-30T04:25:59;100613.10;;;17.45;32.11
60041;BME280;60036;53.468;-2.266;2022-10-30T04:28:23;100614.57;;;17.72;32.07
60041;BME280;60036;53.468;-2.266;2022-10-30T04:30:48;100615.52;;;17.54;32.05
60041;BME280;60036;53.468;-2.266;2022-10-30T04:33:13;100624.08;;;17.80;32.07
60041;BME280;60036;53.468;-2.266;2022-10-30T04:35:39;100624.44;;;17.48;32.07
60041;BME280;60036;53.468;-2.266;2022-10-30T04:38:05;100624.12;;;17.39;32.09
60041;BME280;60036;53.468;-2.266;2022-10-30T04:40:30;100623.42;;;17.61;32.04
60041;BME280;60036;53.468;-2.266;2022-10-30T04:42:54;100621.39;;;17.63;31.92
60041;BME280;60036;53.468;-2.266;2022-10-30T04:45:19;100625.21;;;16.98;32.08
60041;BME280;60036;53.468;-2.266;2022-10-30T04:47:44;100629.35;;;17.42;31.98
60041;BME280;60036;53.468;-2.266;2022-10-30T04:50:09;100621.94;;;17.28;32.00
60041;BME280;60036;53.468;-2.266;2022-10-30T04:52:34;100624.06;;;16.96;31.96
60041;BME280;60036;53.468;-2.266;2022-10-30T04:54:59;100621.75;;;17.30;31.99
60041;BME280;60036;53.468;-2.266;2022-10-30T04:57:24;100624.73;;;17.37;32.13
60041;BME280;60036;53.468;-2.266;2022-10-30T04:59:49;100625.80;;;17.68;31.77
60041;BME280;60036;53.468;-2.266;2022-10-30T05:02:15;100626.06;;;17.71;31.87
60041;BME280;60036;53.468;-2.266;2022-10-30T05:04:39;100616.61;;;17.83;31.92
60041;BME280;60036;53.468;-2.266;2022-10-30T05:07:05;100611.49;;;17.70;31.91
60041;BME280;60036;53.468;-2.266;2022-10-30T05:09:30;100619.39;;;17.78;31.84
60041;BME280;60036;53.468;-2.266;2022-10-30T05:11:55;100622.77;;;17.61;32.02
60041;BME280;60036;53.468;-2.266;2022-10-30T05:14:20;100628.51;;;17.27;31.83
60041;BME280;60036;53.468;-2.266;2022-10-30T05:16:45;100637.55;;;17.46;31.95
60041;BME280;60036;53.468;-2.266;2022-10-30T05:19:10;100639.03;;;17.51;31.81
60041;BME280;60036;53.468;-2.266;2022-10-30T05:21:35;100632.96;;;17.75;31.74
60041;BME280;60036;53.468;-2.266;2022-10-30T05:24:00;100619.27;;;17.77;31.72
60041;BME280;60036;53.468;-2.266;2022-10-30T05:26:26;100622.52;;;17.40;31.75
60041;BME280;60036;53.468;-2.266;2022-10-30T05:28:51;100620.30;;;17.52;31.81
60041;BME280;60036;53.468;-2.266;2022-10-30T05:31:17;100626.99;;;17.46;31.88
60041;BME280;60036;53.468;-2.266;2022-10-30T05:33:41;100629.21;;;17.41;31.90
60041;BME280;60036;53.468;-2.266;2022-10-30T05:36:07;100631.59;;;17.60;31.81
60041;BME280;60036;53.468;-2.266;2022-10-30T05:38:31;100629.20;;;17.34;31.90
60041;BME280;60036;53.468;-2.266;2022-10-30T05:40:56;100630.47;;;17.07;31.97
60041;BME280;60036;53.468;-2.266;2022-10-30T05:43:21;100633.40;;;17.41;31.94
60041;BME280;60036;53.468;-2.266;2022-10-30T05:45:48;100637.42;;;17.77;31.83
60041;BME280;60036;53.468;-2.266;2022-10-30T05:48:11;100636.19;;;17.74;31.71
60041;BME280;60036;53.468;-2.266;2022-10-30T05:50:37;100632.48;;;17.55;31.86
60041;BME280;60036;53.468;-2.266;2022-10-30T05:53:04;100630.25;;;17.36;31.78
60041;BME280;60036;53.468;-2.266;2022-10-30T05:55:27;100625.26;;;17.16;31.67
60041;BME280;60036;53.468;-2.266;2022-10-30T05:57:55;100622.56;;;17.42;31.73
60041;BME280;60036;53.468;-2.266;2022-10-30T06:00:17;100616.89;;;17.84;31.73
60041;BME280;60036;53.468;-2.266;2022-10-30T06:02:42;100621.54;;;17.61;31.77
60041;BME280;60036;53.468;-2.266;2022-10-30T06:05:08;100620.59;;;17.45;31.71
60041;BME280;60036;53.468;-2.266;2022-10-30T06:07:32;100615.44;;;17.87;31.43
60041;BME280;60036;53.468;-2.266;2022-10-30T06:09:58;100611.40;;;17.43;31.46
60041;BME280;60036;53.468;-2.266;2022-10-30T06:12:23;100613.00;;;17.10;31.53
60041;BME280;60036;53.468;-2.266;2022-10-30T06:14:48;100618.88;;;17.14;31.70
60041;BME280;60036;53.468;-2.266;2022-10-30T06:17:13;100621.07;;;17.15;31.76
60041;BME280;60036;53.468;-2.266;2022-10-30T06:19:38;100612.49;;;17.64;31.59
60041;BME280;60036;53.468;-2.266;2022-10-30T06:22:03;100613.65;;;17.92;31.53
60041;BME280;60036;53.468;-2.266;2022-10-30T06:24:28;100613.43;;;17.19;31.51
60041;BME280;60036;53.468;-2.266;2022-10-30T06:26:53;100610.29;;;17.83;31.53
60041;BME280;60036;53.468;-2.266;2022-10-30T06:29:19;100610.15;;;17.35;31.52
60041;BME280;60036;53.468;-2.266;2022-10-30T06:31:44;100606.70;;;17.88;31.38
60041;BME280;60036;53.468;-2.266;2022-10-30T06:34:09;100606.29;;;17.62;31.44
60041;BME280;60036;53.468;-2.266;2022-10-30T06:36:34;100613.44;;;17.67;31.48
60041;BME280;60036;53.468;-2.266;2022-10-30T06:38:59;100614.40;;;17.52;31.48
60041;BME280;60036;53.468;-2.266;2022-10-30T06:41:24;100609.92;;;17.55;31.56
60041;BME280;60036;53.468;-2.266;2022-10-30T06:43:49;100612.85;;;17.64;31.52
60041;BME280;60036;53.468;-2.266;2022-10-30T06:46:14;100611.47;;;17.76;31.34
60041;BME280;60036;53.468;-2.266;2022-10-30T06:48:39;100616.24;;;17.48;31.50
60041;BME280;60036;53.468;-2.266;2022-10-30T06:51:05;100611.90;;;17.48;31.43
60041;BME280;60036;53.468;-2.266;2022-10-30T06:53:30;100610.04;;;17.39;31.39
60041;BME280;60036;53.468;-2.266;2022-10-30T06:55:55;100613.03;;;17.44;31.50
60041;BME280;60036;53.468;-2.266;2022-10-30T06:58:20;100617.77;;;17.64;31.43
60041;BME280;60036;53.468;-2.266;2022-10-30T07:00:45;100629.19;;;17.29;31.46
60041;BME280;60036;53.468;-2.266;2022-10-30T07:03:10;100630.62;;;17.35;31.46
60041;BME280;60036;53.468;-2.266;2022-10-30T07:05:35;100633.04;;;17.57;31.33
60041;BME280;60036;53.468;-2.266;2022-10-30T07:08:00;100635.77;;;17.76;31.33
60041;BME280;60036;53.468;-2.266;2022-10-30T07:10:25;100638.67;;;17.43;31.31
60041;BME280;60036;53.468;-2.266;2022-10-30T07:12:52;100639.76;;;17.86;31.27
60041;BME280;60036;53.468;-2.266;2022-10-30T07:15:17;100636.27;;;17.96;31.31
60041;BME280;60036;53.468;-2.266;2022-10-30T07:17:41;100639.54;;;17.69;31.27
60041;BME280;60036;53.468;-2.266;2022-10-30T07:20:07;100641.54;;;17.13;31.28
60041;BME280;60036;53.468;-2.266;2022-10-30T07:22:31;100637.91;;;17.44;31.31
60041;BME280;60036;53.468;-2.266;2022-10-30T07:24:56;100631.98;;;17.51;31.26
60041;BME280;60036;53.468;-2.266;2022-10-30T07:27:21;100623.02;;;17.44;31.27
60041;BME280;60036;53.468;-2.266;2022-10-30T07:29:46;100622.66;;;17.54;31.28
60041;BME280;60036;53.468;-2.266;2022-10-30T07:32:12;100620.19;;;17.72;31.24
60041;BME280;60036;53.468;-2.266;2022-10-30T07:34:36;100620.23;;;17.52;31.22
60041;BME280;60036;53.468;-2.266;2022-10-30T07:37:02;100619.94;;;17.71;31.19
60041;BME280;60036;53.468;-2.266;2022-10-30T07:39:27;100615.61;;;17.36;31.23
60041;BME280;60036;53.468;-2.266;2022-10-30T07:41:52;100604.81;;;17.98;31.12
60041;BME280;60036;53.468;-2.266;2022-10-30T07:44:17;100608.49;;;17.50;31.17
60041;BME280;60036;53.468;-2.266;2022-10-30T07:46:42;100613.38;;;17.49;31.27
60041;BME280;60036;53.468;-2.266;2022-10-30T07:49:07;100607.35;;;17.55;31.16
60041;BME280;60036;53.468;-2.266;2022-10-30T07:51:33;100609.76;;;17.28;31.30
60041;BME280;60036;53.468;-2.266;2022-10-30T07:53:58;100612.56;;;17.10;31.18
60041;BME280;60036;53.468;-2.266;2022-10-30T07:56:23;100611.56;;;17.42;31.11
60041;BME280;60036;53.468;-2.266;2022-10-30T07:58:48;100607.82;;;17.39;31.24
60041;BME280;60036;53.468;-2.266;2022-10-30T08:01:14;100608.49;;;17.49;31.18
60041;BME280;60036;53.468;-2.266;2022-10-30T08:03:38;100593.84;;;17.55;31.03
60041;BME280;60036;53.468;-2.266;2022-10-30T08:06:04;100603.54;;;17.43;31.16
60041;BME280;60036;53.468;-2.266;2022-10-30T08:08:28;100591.83;;;17.71;31.15
60041;BME280;60036;53.468;-2.266;2022-10-30T08:10:54;100589.06;;;17.78;30.96
60041;BME280;60036;53.468;-2.266;2022-10-30T08:13:19;100598.77;;;17.21;31.12
60041;BME280;60036;53.468;-2.266;2022-10-30T08:15:44;100602.53;;;17.36;31.18
60041;BME280;60036;53.468;-2.266;2022-10-30T08:18:09;100606.99;;;17.59;30.96
60041;BME280;60036;53.468;-2.266;2022-10-30T08:20:34;100601.56;;;17.20;31.12
60041;BME280;60036;53.468;-2.266;2022-10-30T08:22:59;100606.55;;;17.64;31.16
60041;BME280;60036;53.468;-2.266;2022-10-30T08:25:26;100609.41;;;17.49;31.06
60041;BME280;60036;53.468;-2.266;2022-10-30T08:27:51;100613.61;;;17.22;31.14
60041;BME280;60036;53.468;-2.266;2022-10-30T08:30:14;100618.84;;;17.37;31.14
60041;BME280;60036;53.468;-2.266;2022-10-30T08:32:39;100618.82;;;17.54;31.07
60041;BME280;60036;53.468;-2.266;2022-10-30T08:35:05;100613.93;;;17.43;31.01
60041;BME280;60036;53.468;-2.266;2022-10-30T08:37:30;100602.43;;;17.57;31.12
60041;BME280;60036;53.468;-2.266;2022-10-30T08:39:55;100597.07;;;17.78;30.93
60041;BME280;60036;53.468;-2.266;2022-10-30T08:42:20;100602.21;;;17.65;31.01
60041;BME280;60036;53.468;-2.266;2022-10-30T08:44:45;100616.64;;;17.57;31.08
60041;BME280;60036;53.468;-2.266;2022-10-30T08:47:10;100615.75;;;17.47;31.05
60041;BME280;60036;53.468;-2.266;2022-10-30T08:49:35;100623.31;;;17.64;31.01
60041;BME280;60036;53.468;-2.266;2022-10-30T08:52:00;100625.41;;;16.40;31.02
60041;BME280;60036;53.468;-2.266;2022-10-30T08:54:25;100621.41;;;17.58;30.76
60041;BME280;60036;53.468;-2.266;2022-10-30T08:56:50;100622.42;;;17.61;30.96
60041;BME280;60036;53.468;-2.266;2022-10-30T08:59:17;100621.87;;;17.49;30.81
60041;BME280;60036;53.468;-2.266;2022-10-30T09:01:41;100621.12;;;17.47;30.92
60041;BME280;60036;53.468;-2.266;2022-10-30T09:04:06;100619.44;;;17.41;30.82
60041;BME280;60036;53.468;-2.266;2022-10-30T09:06:31;100618.77;;;17.49;30.85
60041;BME280;60036;53.468;-2.266;2022-10-30T09:08:56;100613.62;;;17.55;30.85
60041;BME280;60036;53.468;-2.266;2022-10-30T09:11:21;100606.38;;;17.55;30.97
60041;BME280;60036;53.468;-2.266;2022-10-30T09:13:46;100607.74;;;17.59;30.76
60041;BME280;60036;53.468;-2.266;2022-10-30T09:16:11;100613.26;;;17.54;30.86
60041;BME280;60036;53.468;-2.266;2022-10-30T09:18:36;100611.62;;;17.66;30.79
60041;BME280;60036;53.468;-2.266;2022-10-30T09:21:01;100610.00;;;17.42;30.95
60041;BME280;60036;53.468;-2.266;2022-10-30T09:23:27;100605.50;;;17.28;30.98
60041;BME280;60036;53.468;-2.266;2022-10-30T09:25:52;100611.26;;;17.55;30.91
60041;BME280;60036;53.468;-2.266;2022-10-30T09:28:22;100616.27;;;17.65;30.95
60041;BME280;60036;53.468;-2.266;2022-10-30T09:30:42;100626.47;;;17.69;30.93
60041;BME280;60036;53.468;-2.266;2022-10-30T09:33:08;100628.46;;;17.54;31.01
60041;BME280;60036;53.468;-2.266;2022-10-30T09:35:32;100625.32;;;17.38;30.99
60041;BME280;60036;53.468;-2.266;2022-10-30T09:37:57;100615.68;;;17.53;30.91
60041;BME280;60036;53.468;-2.266;2022-10-30T09:40:36;100615.06;;;17.54;30.87
60041;BME280;60036;53.468;-2.266;2022-10-30T09:42:48;100614.28;;;17.67;30.83
60041;BME280;60036;53.468;-2.266;2022-10-30T09:45:33;100615.58;;;17.57;30.90
60041;BME280;60036;53.468;-2.266;2022-10-30T09:47:43;100614.94;;;17.55;30.89
60041;BME280;60036;53.468;-2.266;2022-10-30T09:50:15;100608.12;;;17.34;30.89
60041;BME280;60036;53.468;-2.266;2022-10-30T09:52:30;100607.17;;;17.37;30.97
60041;BME280;60036;53.468;-2.266;2022-10-30T09:55:07;100611.34;;;17.31;30.88
60041;BME280;60036;53.468;-2.266;2022-10-30T09:57:24;100603.71;;;17.16;30.95
60041;BME280;60036;53.468;-2.266;2022-10-30T09:59:53;100606.17;;;17.38;30.89
60041;BME280;60036;53.468;-2.266;2022-10-30T10:02:20;100604.99;;;17.10;30.94
60041;BME280;60036;53.468;-2.266;2022-10-30T10:04:38;100607.63;;;17.31;30.94
60041;BME280;60036;53.468;-2.266;2022-10-30T10:07:01;100612.48;;;17.50;31.00
60041;BME280;60036;53.468;-2.266;2022-10-30T10:09:25;100618.93;;;17.15;31.03
60041;BME280;60036;53.468;-2.266;2022-10-30T10:11:53;100613.11;;;17.28;31.06
60041;BME280;60036;53.468;-2.266;2022-10-30T10:14:17;100612.14;;;17.17;30.91
60041;BME280;60036;53.468;-2.266;2022-10-30T10:16:40;100615.91;;;17.33;31.02
60041;BME280;60036;53.468;-2.266;2022-10-30T10:19:11;100611.83;;;17.07;31.01
60041;BME280;60036;53.468;-2.266;2022-10-30T10:21:31;100611.52;;;17.41;30.99
60041;BME280;60036;53.468;-2.266;2022-10-30T10:23:55;100616.29;;;17.67;30.89
60041;BME280;60036;53.468;-2.266;2022-10-30T10:26:26;100616.71;;;17.24;30.96
60041;BME280;60036;53.468;-2.266;2022-10-30T10:28:53;100619.98;;;17.50;30.88
60041;BME280;60036;53.468;-2.266;2022-10-30T10:31:20;100618.69;;;17.54;30.80
60041;BME280;60036;53.468;-2.266;2022-10-30T10:33:45;100614.91;;;17.58;30.50
60041;BME280;60036;53.468;-2.266;2022-10-30T10:36:06;100619.30;;;17.25;30.67
60041;BME280;60036;53.468;-2.266;2022-10-30T10:38:34;100624.27;;;17.58;30.88
60041;BME280;60036;53.468;-2.266;2022-10-30T10:41:03;100620.98;;;17.14;31.02
60041;BME280;60036;53.468;-2.266;2022-10-30T10:43:20;100614.55;;;17.51;30.84
60041;BME280;60036;53.468;-2.266;2022-10-30T10:45:48;100603.14;;;17.76;30.55
60041;BME280;60036;53.468;-2.266;2022-10-30T10:48:22;100600.80;;;17.73;30.61
60041;BME280;60036;53.468;-2.266;2022-10-30T10:50:32;100593.17;;;17.32;30.60
60041;BME280;60036;53.468;-2.266;2022-10-30T10:52:58;100591.39;;;17.84;30.41
60041;BME280;60036;53.468;-2.266;2022-10-30T10:55:22;100592.14;;;17.03;30.44
60041;BME280;60036;53.468;-2.266;2022-10-30T10:57:47;100596.41;;;17.28;30.47
60041;BME280;60036;53.468;-2.266;2022-10-30T11:00:15;100582.46;;;17.53;30.57
60041;BME280;60036;53.468;-2.266;2022-10-30T11:02:40;100580.15;;;17.26;30.55
60041;BME280;60036;53.468;-2.266;2022-10-30T11:05:06;100576.95;;;17.27;30.61
60041;BME280;60036;53.468;-2.266;2022-10-30T11:07:30;100581.57;;;17.41;30.63
60041;BME280;60036;53.468;-2.266;2022-10-30T11:09:53;100572.23;;;17.30;30.62
60041;BME280;60036;53.468;-2.266;2022-10-30T11:12:18;100571.27;;;17.45;30.72
60041;BME280;60036;53.468;-2.266;2022-10-30T11:14:41;100571.61;;;17.06;30.77
60041;BME280;60036;53.468;-2.266;2022-10-30T11:17:12;100578.02;;;17.08;30.80
60041;BME280;60036;53.468;-2.266;2022-10-30T11:19:32;100575.17;;;16.97;30.72
60041;BME280;60036;53.468;-2.266;2022-10-30T11:21:57;100579.91;;;17.01;30.76
60041;BME280;60036;53.468;-2.266;2022-10-30T11:24:28;100582.03;;;17.22;30.55
60041;BME280;60036;53.468;-2.266;2022-10-30T11:26:47;100575.50;;;17.13;30.47
60041;BME280;60036;53.468;-2.266;2022-10-30T11:29:13;100570.35;;;17.54;30.42
60041;BME280;60036;53.468;-2.266;2022-10-30T11:31:39;100571.29;;;17.03;30.26
60041;BME280;60036;53.468;-2.266;2022-10-30T11:34:23;100566.48;;;17.37;30.20
60041;BME280;60036;53.468;-2.266;2022-10-30T11:36:28;100560.09;;;17.55;30.25
60041;BME280;60036;53.468;-2.266;2022-10-30T11:38:56;;;;17.40;
60041;BME280;60036;53.468;-2.266;2022-10-30T11:41:19;100559.45;;;17.39;30.19
60041;BME280;60036;53.468;-2.266;2022-10-30T11:43:44;100559.29;;;17.43;30.26
60041;BME280;60036;53.468;-2.266;2022-10-30T11:46:11;100550.40;;;17.45;30.07
60041;BME280;60036;53.468;-2.266;2022-10-30T11:48:36;100561.98;;;17.30;30.06
60041;BME280;60036;53.468;-2.266;2022-10-30T11:51:00;100549.38;;;17.29;30.19
60041;BME280;60036;53.468;-2.266;2022-10-30T11:53:27;100550.89;;;17.07;30.06
60041;BME280;60036;53.468;-2.266;2022-10-30T11:55:49;100541.98;;;17.29;29.99
60041;BME280;60036;53.468;-2.266;2022-10-30T11:58:21;100551.53;;;17.23;29.99
60041;BME280;60036;53.468;-2.266;2022-10-30T12:00:39;100550.22;;;17.47;30.13
60041;BME280;60036;53.468;-2.266;2022-10-30T12:03:26;100542.92;;;17.19;30.12
60041;BME280;60036;53.468;-2.266;2022-10-30T12:05:33;100539.25;;;17.15;30.27
60041;BME280;60036;53.468;-2.266;2022-10-30T12:08:15;100532.19;;;17.10;30.35
60041;BME280;60036;53.468;-2.266;2022-10-30T12:10:23;100530.46;;;17.42;30.31
60041;BME280;60036;53.468;-2.266;2022-10-30T12:12:49;100530.83;;;17.49;30.41
60041;BME280;60036;53.468;-2.266;2022-10-30T12:15:22;100541.08;;;17.14;30.49
60041;BME280;60036;53.468;-2.266;2022-10-30T12:17:37;100534.12;;;17.25;30.40
60041;BME280;60036;53.468;-2.266;2022-10-30T12:20:00;100524.15;;;17.47;30.35
60041;BME280;60036;53.468;-2.266;2022-10-30T12:22:29;100525.24;;;17.33;30.13
60041;BME280;60036;53.468;-2.266;2022-10-30T12:24:51;100528.22;;;17.19;30.24
60041;BME280;60036;53.468;-2.266;2022-10-30T12:27:17;100528.60;;;17.20;30.06
60041;BME280;60036;53.468;-2.266;2022-10-30T12:29:45;100526.86;;;17.53;30.09